createdAt,value
2022-12-23T00:28:17.313Z,-0.40
2022-12-23T06:15:51.897Z,-0.27
2022-12-23T06:19:51.160Z,-0.27
2022-12-23T06:23:50.599Z,-0.33
2022-12-23T06:27:49.823Z,-0.35
2022-12-23T06:31:50.990Z,-0.26
2022-12-23T06:35:50.245Z,-0.31
2022-12-23T06:39:49.589Z,-0.39
2022-12-23T06:43:52.623Z,-0.34
2022-12-23T06:47:55.688Z,-0.38
2022-12-23T06:51:55.155Z,-0.34
2022-12-23T06:56:00.892Z,-0.14
2022-12-23T07:00:00.202Z,0.18
2022-12-23T07:04:01.635Z,0.11
2022-12-23T07:08:00.402Z,0.25
2022-12-23T07:11:59.696Z,0.38
2022-12-23T07:15:59.110Z,0.53
2022-12-23T07:19:59.974Z,0.87
2022-12-23T07:23:59.318Z,1.19
2022-12-23T07:27:58.100Z,1.21
2022-12-23T07:31:57.463Z,1.15
2022-12-23T07:36:01.695Z,0.77
2022-12-23T07:40:06.469Z,0.97
2022-12-23T07:44:09.964Z,1.34
2022-12-23T07:48:08.804Z,1.62
2022-12-23T07:52:10.168Z,2.18
2022-12-23T07:56:09.928Z,2.26
2022-12-23T08:00:10.688Z,2.28
2022-12-23T08:04:12.596Z,2.31
2022-12-23T08:08:14.123Z,2.38
2022-12-23T08:12:12.950Z,2.58
2022-12-23T08:16:13.315Z,2.14
2022-12-23T08:20:13.067Z,2.01
2022-12-23T08:24:14.579Z,2.17
2022-12-23T08:28:13.946Z,2.45
2022-12-23T08:32:13.347Z,3.03
2022-12-23T08:36:20.826Z,3.17
2022-12-23T08:40:24.100Z,3.46
2022-12-23T08:44:26.664Z,3.57
2022-12-23T08:48:25.749Z,3.90
2022-12-23T08:52:25.301Z,4.24
2022-12-23T08:56:27.183Z,4.29
2022-12-23T09:00:26.496Z,4.04
2022-12-23T09:04:25.827Z,3.99
2022-12-23T09:08:24.604Z,3.48
2022-12-23T09:12:26.105Z,3.36
2022-12-23T09:16:26.201Z,3.30
2022-12-23T09:20:25.515Z,3.15
2022-12-23T09:24:24.427Z,3.24
2022-12-23T09:28:26.591Z,3.57
2022-12-23T09:32:25.829Z,3.65
2022-12-23T09:36:24.738Z,3.38
2022-12-23T09:40:27.441Z,3.29
2022-12-23T09:44:41.351Z,3.50
2022-12-23T09:48:45.211Z,3.55
2022-12-23T09:52:48.216Z,3.59
2022-12-23T09:56:49.984Z,3.85
2022-12-23T10:00:55.941Z,3.70
2022-12-23T10:04:59.124Z,3.68
2022-12-23T10:09:01.020Z,3.93
2022-12-23T10:13:02.392Z,3.84
2022-12-23T10:17:07.470Z,3.96
2022-12-23T10:21:11.202Z,4.16
2022-12-23T10:25:16.114Z,4.65
2022-12-23T10:29:19.466Z,5.16
2022-12-23T10:33:24.014Z,5.26
2022-12-23T10:37:26.493Z,5.09
2022-12-23T10:41:31.804Z,5.27
2022-12-23T10:45:45.214Z,5.25
2022-12-23T10:49:54.948Z,5.40
2022-12-23T10:53:56.001Z,5.81
2022-12-23T10:57:59.033Z,5.63
2022-12-23T11:02:03.345Z,5.65
2022-12-23T11:06:05.284Z,5.54
2022-12-23T11:10:05.867Z,5.59
2022-12-23T11:14:05.320Z,5.57
2022-12-23T11:18:07.115Z,5.62
2022-12-23T11:22:22.258Z,5.72
2022-12-23T11:26:22.075Z,5.64
2022-12-23T11:30:21.686Z,5.42
2022-12-23T11:38:23.338Z,5.95
2022-12-23T11:42:26.905Z,6.21
2022-12-23T11:46:28.228Z,6.25
2022-12-23T11:50:35.230Z,6.16
2022-12-23T11:54:36.877Z,6.33
2022-12-23T11:58:42.315Z,6.54
2022-12-23T12:02:42.853Z,6.60
2022-12-23T12:06:48.430Z,6.83
2022-12-23T12:10:55.629Z,6.64
2022-12-23T12:14:56.313Z,6.75
2022-12-23T12:18:57.585Z,6.91
2022-12-23T12:22:58.222Z,6.97
2022-12-23T12:27:03.087Z,7.11
2022-12-23T12:31:06.420Z,7.23
2022-12-23T12:35:10.504Z,7.30
2022-12-23T12:39:13.136Z,6.96
2022-12-23T12:43:18.553Z,6.91
2022-12-23T12:47:44.617Z,6.99
2022-12-23T12:51:45.716Z,6.81
2022-12-23T12:55:46.647Z,6.66
2022-12-23T12:59:50.833Z,6.71
2022-12-23T13:04:03.107Z,6.65
2022-12-23T13:08:13.594Z,6.58
2022-12-23T13:12:16.930Z,6.66
2022-12-23T13:16:23.661Z,6.62
2022-12-23T13:20:31.360Z,6.63
2022-12-23T13:24:34.488Z,6.76
2022-12-23T13:28:36.610Z,6.51
2022-12-23T13:33:04.692Z,6.61
2022-12-23T13:37:12.010Z,6.64
2022-12-23T13:41:16.398Z,6.76
2022-12-23T13:45:17.051Z,6.90
2022-12-23T13:49:23.266Z,6.91
2022-12-23T13:53:27.677Z,6.90
2022-12-23T13:57:33.852Z,6.79
2022-12-23T14:01:38.258Z,6.81
2022-12-23T14:05:40.631Z,6.66
2022-12-23T14:09:43.810Z,6.77
2022-12-23T14:13:43.973Z,6.74
2022-12-23T14:17:47.299Z,6.46
2022-12-23T14:21:52.799Z,6.52
2022-12-23T14:26:01.301Z,6.53
2022-12-23T14:30:06.521Z,6.70
2022-12-23T14:34:07.542Z,6.77
2022-12-23T14:38:21.657Z,6.81
2022-12-23T14:42:35.436Z,6.96
2022-12-23T14:46:58.695Z,7.03
2022-12-23T14:50:59.513Z,7.05
2022-12-23T14:55:28.500Z,7.15
2022-12-23T14:59:25.379Z,7.07
2022-12-23T15:03:25.149Z,7.04
2022-12-23T15:07:27.734Z,7.16
2022-12-23T15:11:28.946Z,7.23
2022-12-23T15:15:32.699Z,7.15
2022-12-23T15:19:33.249Z,6.98
2022-12-23T15:23:32.943Z,7.05
2022-12-23T15:27:34.647Z,6.99
2022-12-23T15:31:40.187Z,7.05
2022-12-23T15:35:41.771Z,7.11
2022-12-23T15:39:46.283Z,7.21
2022-12-23T15:43:46.716Z,7.23
2022-12-23T15:47:47.928Z,7.22
2022-12-23T15:52:07.193Z,7.33
2022-12-23T15:56:10.000Z,7.29
2022-12-23T16:00:20.016Z,7.21
2022-12-23T16:04:29.701Z,7.23
2022-12-23T16:08:31.432Z,7.18
2022-12-23T16:12:32.970Z,7.16
2022-12-23T16:16:34.491Z,7.07
2022-12-23T16:20:42.336Z,7.04
2022-12-23T16:24:46.391Z,7.01
2022-12-23T16:28:49.085Z,6.57
2022-12-23T16:32:55.076Z,6.68
2022-12-23T16:36:57.057Z,6.89
2022-12-23T16:40:57.331Z,6.94
2022-12-23T16:45:03.824Z,7.08
2022-12-23T16:49:10.717Z,7.15
2022-12-23T16:53:14.427Z,7.15
2022-12-23T16:57:13.509Z,6.87
2022-12-23T17:01:16.831Z,6.81
2022-12-23T17:09:53.329Z,6.59
2022-12-23T17:13:59.578Z,6.55
2022-12-23T17:18:03.467Z,6.55
2022-12-23T17:22:05.234Z,6.24
2022-12-23T17:26:08.256Z,6.10
2022-12-23T17:30:09.319Z,5.97
2022-12-23T17:34:17.280Z,6.02
2022-12-23T17:38:18.116Z,6.08
2022-12-23T17:42:25.840Z,6.25
2022-12-23T17:46:29.148Z,6.44
2022-12-23T17:50:29.198Z,6.56
2022-12-23T17:54:29.325Z,6.53
2022-12-23T17:58:33.408Z,6.50
2022-12-23T18:02:35.299Z,6.14
2022-12-23T18:06:36.746Z,5.71
2022-12-23T18:10:39.401Z,5.63
2022-12-23T18:14:41.166Z,5.63
2022-12-23T18:18:46.330Z,5.63
2022-12-23T18:22:47.892Z,5.73
2022-12-23T18:26:51.959Z,5.81
2022-12-23T18:30:57.386Z,6.00
2022-12-23T18:34:58.641Z,6.00
2022-12-23T18:39:11.863Z,5.85
2022-12-23T18:43:22.698Z,5.50
2022-12-23T18:47:24.532Z,5.49
2022-12-23T18:51:26.583Z,5.48
2022-12-23T18:55:33.531Z,5.36
2022-12-23T18:59:38.216Z,5.05
2022-12-23T19:03:45.127Z,4.57
2022-12-23T19:07:45.206Z,4.18
2022-12-23T19:11:45.474Z,4.16
2022-12-23T19:15:45.312Z,4.18
2022-12-23T19:19:46.794Z,4.31
2022-12-23T19:23:46.166Z,4.21
2022-12-23T19:27:46.003Z,4.13
2022-12-23T19:31:44.777Z,3.97
2022-12-23T19:35:48.837Z,3.58
2022-12-23T19:39:49.793Z,3.53
2022-12-23T19:43:50.357Z,3.77
2022-12-23T19:47:53.504Z,3.47
2022-12-23T19:52:05.022Z,3.00
2022-12-23T19:56:06.645Z,3.04
2022-12-23T20:00:11.570Z,3.06
2022-12-23T20:04:14.084Z,2.93
2022-12-23T20:08:17.641Z,2.66
2022-12-23T20:12:17.649Z,2.83
2022-12-23T20:16:20.284Z,3.15
2022-12-23T20:20:20.547Z,3.45
2022-12-23T20:24:26.631Z,3.57
2022-12-23T20:28:27.905Z,3.46
2022-12-23T20:32:28.752Z,3.21
2022-12-23T20:36:34.782Z,2.86
2022-12-23T20:40:55.502Z,2.91
2022-12-23T20:45:00.123Z,2.63
2022-12-23T20:49:18.335Z,2.52
2022-12-23T20:53:35.170Z,2.11
2022-12-23T20:57:57.364Z,1.87
2022-12-23T21:02:10.558Z,2.09
2022-12-23T21:06:14.136Z,2.52
2022-12-23T21:10:28.399Z,2.69
2022-12-23T21:14:38.048Z,2.69
2022-12-23T21:18:42.304Z,2.69
2022-12-23T21:22:43.685Z,2.80
2022-12-23T21:26:50.251Z,2.88
2022-12-23T21:30:54.316Z,3.13
2022-12-23T21:35:01.338Z,3.22
2022-12-23T21:39:01.557Z,2.72
2022-12-23T21:43:08.344Z,3.02
2022-12-23T21:47:11.941Z,3.19
2022-12-23T21:51:15.050Z,3.48
2022-12-23T21:55:15.772Z,3.67
2022-12-23T21:59:17.096Z,3.78
2022-12-23T22:03:20.459Z,3.87
2022-12-23T22:07:21.443Z,3.40
2022-12-23T22:11:23.002Z,2.96
2022-12-23T22:15:24.202Z,2.79
2022-12-23T22:19:28.151Z,2.78
2022-12-23T22:23:28.075Z,2.43
2022-12-23T22:27:29.216Z,2.25
2022-12-23T22:31:33.699Z,2.29
2022-12-23T22:35:35.872Z,2.85
2022-12-23T22:39:34.828Z,3.08
2022-12-23T22:43:34.737Z,3.26
2022-12-23T22:47:34.966Z,3.27
2022-12-23T22:51:38.025Z,3.18
2022-12-23T22:55:37.781Z,3.27
2022-12-23T22:59:38.226Z,2.87
2022-12-23T23:03:37.970Z,2.82
2022-12-23T23:07:39.414Z,3.04
2022-12-23T23:11:39.539Z,2.70
2022-12-23T23:15:38.908Z,2.46
2022-12-23T23:19:38.637Z,2.06
2022-12-23T23:23:40.455Z,2.01
2022-12-23T23:27:39.325Z,2.35
2022-12-23T23:31:42.365Z,2.59
2022-12-23T23:35:42.457Z,2.29
2022-12-23T23:39:44.519Z,2.07
2022-12-23T23:43:44.550Z,2.34
2022-12-23T23:47:43.721Z,2.49
2022-12-23T23:51:43.461Z,2.49
2022-12-23T23:55:45.841Z,2.59
2022-12-23T23:59:44.956Z,2.81
